sensor_id;sensor_type;location;lat;lon;timestamp;temperature;humidity
24452;DHT22;13350;50.984;5.822;2023-04-25T00:00:32;7.20;99.90
24452;DHT22;13350;50.984;5.822;2023-04-25T00:02:59;7.10;99.90
24452;DHT22;13350;50.984;5.822;2023-04-25T00:05:27;7.10;99.90
24452;DHT22;13350;50.984;5.822;2023-04-25T00:07:55;7.00;99.90
24452;DHT22;13350;50.984;5.822;2023-04-25T00:10:22;7.00;99.90
24452;DHT22;13350;50.984;5.822;2023-04-25T00:12:49;7.00;99.90
24452;DHT22;13350;50.984;5.822;2023-04-25T00:15:17;6.90;99.90
24452;DHT22;13350;50.984;5.822;2023-04-25T00:17:46;6.90;99.90
24452;DHT22;13350;50.984;5.822;2023-04-25T00:20:14;6.80;99.90
24452;DHT22;13350;50.984;5.822;2023-04-25T00:22:42;6.80;99.90
24452;DHT22;13350;50.984;5.822;2023-04-25T00:25:09;6.70;99.90
24452;DHT22;13350;50.984;5.822;2023-04-25T00:27:36;6.60;99.90
24452;DHT22;13350;50.984;5.822;2023-04-25T00:30:06;6.60;99.90
24452;DHT22;13350;50.984;5.822;2023-04-25T00:32:34;6.70;99.90
24452;DHT22;13350;50.984;5.822;2023-04-25T00:35:02;6.70;99.90
24452;DHT22;13350;50.984;5.822;2023-04-25T00:37:29;6.80;99.90
24452;DHT22;13350;50.984;5.822;2023-04-25T00:39:58;6.70;99.90
24452;DHT22;13350;50.984;5.822;2023-04-25T00:42:25;6.70;99.90
24452;DHT22;13350;50.984;5.822;2023-04-25T00:44:53;6.70;99.90
24452;DHT22;13350;50.984;5.822;2023-04-25T00:47:21;6.70;99.90
24452;DHT22;13350;50.984;5.822;2023-04-25T00:49:48;6.70;99.90
24452;DHT22;13350;50.984;5.822;2023-04-25T00:52:17;6.70;99.90
24452;DHT22;13350;50.984;5.822;2023-04-25T00:54:44;6.70;99.90
24452;DHT22;13350;50.984;5.822;2023-04-25T00:57:11;6.80;99.90
24452;DHT22;13350;50.984;5.822;2023-04-25T00:59:39;6.80;99.90
24452;DHT22;13350;50.984;5.822;2023-04-25T01:02:07;6.70;99.90
24452;DHT22;13350;50.984;5.822;2023-04-25T01:04:35;6.70;99.90
24452;DHT22;13350;50.984;5.822;2023-04-25T01:07:02;6.60;99.90
24452;DHT22;13350;50.984;5.822;2023-04-25T01:09:31;6.60;99.90
24452;DHT22;13350;50.984;5.822;2023-04-25T01:11:59;6.70;99.90
24452;DHT22;13350;50.984;5.822;2023-04-25T01:14:26;6.70;99.90
24452;DHT22;13350;50.984;5.822;2023-04-25T01:16:54;6.70;99.90
24452;DHT22;13350;50.984;5.822;2023-04-25T01:19:21;6.70;99.90
24452;DHT22;13350;50.984;5.822;2023-04-25T01:21:50;6.60;99.90
24452;DHT22;13350;50.984;5.822;2023-04-25T01:24:18;6.60;99.90
24452;DHT22;13350;50.984;5.822;2023-04-25T01:26:45;6.60;99.90
24452;DHT22;13350;50.984;5.822;2023-04-25T01:29:15;6.70;99.90
24452;DHT22;13350;50.984;5.822;2023-04-25T01:31:43;6.70;99.90
24452;DHT22;13350;50.984;5.822;2023-04-25T01:34:11;6.70;99.90
24452;DHT22;13350;50.984;5.822;2023-04-25T01:36:38;6.70;99.90
24452;DHT22;13350;50.984;5.822;2023-04-25T01:39:08;6.70;99.90
24452;DHT22;13350;50.984;5.822;2023-04-25T01:41:35;6.70;99.90
24452;DHT22;13350;50.984;5.822;2023-04-25T01:44:03;6.70;99.90
24452;DHT22;13350;50.984;5.822;2023-04-25T01:46:30;6.70;99.90
24452;DHT22;13350;50.984;5.822;2023-04-25T01:48:58;6.70;99.90
24452;DHT22;13350;50.984;5.822;2023-04-25T01:51:25;6.70;99.90
24452;DHT22;13350;50.984;5.822;2023-04-25T01:53:52;6.70;99.90
24452;DHT22;13350;50.984;5.822;2023-04-25T01:56:22;6.70;99.90
24452;DHT22;13350;50.984;5.822;2023-04-25T01:58:49;6.70;99.90
24452;DHT22;13350;50.984;5.822;2023-04-25T02:01:16;6.70;99.90
24452;DHT22;13350;50.984;5.822;2023-04-25T02:03:43;6.70;99.90
24452;DHT22;13350;50.984;5.822;2023-04-25T02:06:11;6.70;99.90
24452;DHT22;13350;50.984;5.822;2023-04-25T02:08:38;6.60;99.90
24452;DHT22;13350;50.984;5.822;2023-04-25T02:11:05;6.60;99.90
24452;DHT22;13350;50.984;5.822;2023-04-25T02:13:34;6.50;99.90
24452;DHT22;13350;50.984;5.822;2023-04-25T02:16:01;6.50;99.90
24452;DHT22;13350;50.984;5.822;2023-04-25T02:18:28;6.60;99.90
24452;DHT22;13350;50.984;5.822;2023-04-25T02:20:57;6.50;99.90
24452;DHT22;13350;50.984;5.822;2023-04-25T02:23:24;6.50;99.90
24452;DHT22;13350;50.984;5.822;2023-04-25T02:25:52;6.50;99.90
24452;DHT22;13350;50.984;5.822;2023-04-25T02:28:21;6.40;99.90
24452;DHT22;13350;50.984;5.822;2023-04-25T02:30:49;6.40;99.90
24452;DHT22;13350;50.984;5.822;2023-04-25T02:33:16;6.40;99.90
24452;DHT22;13350;50.984;5.822;2023-04-25T02:35:43;6.50;99.90
24452;DHT22;13350;50.984;5.822;2023-04-25T02:38:11;6.40;99.90
24452;DHT22;13350;50.984;5.822;2023-04-25T02:40:38;6.40;99.90
24452;DHT22;13350;50.984;5.822;2023-04-25T02:43:06;6.40;99.90
24452;DHT22;13350;50.984;5.822;2023-04-25T02:45:33;6.40;99.90
24452;DHT22;13350;50.984;5.822;2023-04-25T02:48:02;6.40;99.90
24452;DHT22;13350;50.984;5.822;2023-04-25T02:50:29;6.30;99.90
24452;DHT22;13350;50.984;5.822;2023-04-25T02:52:56;6.20;99.90
24452;DHT22;13350;50.984;5.822;2023-04-25T02:55:23;6.20;99.90
24452;DHT22;13350;50.984;5.822;2023-04-25T02:57:51;6.10;99.90
24452;DHT22;13350;50.984;5.822;2023-04-25T03:00:21;6.10;99.90
24452;DHT22;13350;50.984;5.822;2023-04-25T03:02:48;6.20;99.90
24452;DHT22;13350;50.984;5.822;2023-04-25T03:05:18;6.20;99.90
24452;DHT22;13350;50.984;5.822;2023-04-25T03:07:45;6.10;99.90
24452;DHT22;13350;50.984;5.822;2023-04-25T03:10:12;6.10;99.90
24452;DHT22;13350;50.984;5.822;2023-04-25T03:12:39;6.20;99.90
24452;DHT22;13350;50.984;5.822;2023-04-25T03:15:07;6.10;99.90
24452;DHT22;13350;50.984;5.822;2023-04-25T03:17:34;6.10;99.90
24452;DHT22;13350;50.984;5.822;2023-04-25T03:20:02;6.10;99.90
24452;DHT22;13350;50.984;5.822;2023-04-25T03:22:32;6.10;99.90
24452;DHT22;13350;50.984;5.822;2023-04-25T03:24:59;6.10;99.90
24452;DHT22;13350;50.984;5.822;2023-04-25T03:27:26;6.10;99.90
24452;DHT22;13350;50.984;5.822;2023-04-25T03:29:54;6.10;99.90
24452;DHT22;13350;50.984;5.822;2023-04-25T03:32:21;6.00;99.90
24452;DHT22;13350;50.984;5.822;2023-04-25T03:34:48;6.00;99.90
24452;DHT22;13350;50.984;5.822;2023-04-25T03:37:15;6.00;99.90
24452;DHT22;13350;50.984;5.822;2023-04-25T03:39:44;6.00;99.90
24452;DHT22;13350;50.984;5.822;2023-04-25T03:42:11;6.00;99.90
24452;DHT22;13350;50.984;5.822;2023-04-25T03:44:39;6.00;99.90
24452;DHT22;13350;50.984;5.822;2023-04-25T03:47:06;6.00;99.90
24452;DHT22;13350;50.984;5.822;2023-04-25T03:49:34;5.90;99.90
24452;DHT22;13350;50.984;5.822;2023-04-25T03:52:01;5.90;99.90
24452;DHT22;13350;50.984;5.822;2023-04-25T03:54:29;5.90;99.90
24452;DHT22;13350;50.984;5.822;2023-04-25T03:56:57;5.90;99.90
24452;DHT22;13350;50.984;5.822;2023-04-25T03:59:24;5.90;99.90
24452;DHT22;13350;50.984;5.822;2023-04-25T04:01:52;5.90;99.90
24452;DHT22;13350;50.984;5.822;2023-04-25T04:04:19;6.00;99.90
24452;DHT22;13350;50.984;5.822;2023-04-25T04:06:46;6.00;99.90
24452;DHT22;13350;50.984;5.822;2023-04-25T04:09:13;6.00;99.90
24452;DHT22;13350;50.984;5.822;2023-04-25T04:11:41;6.00;99.90
24452;DHT22;13350;50.984;5.822;2023-04-25T04:14:10;6.00;99.90
24452;DHT22;13350;50.984;5.822;2023-04-25T04:16:37;6.00;99.90
24452;DHT22;13350;50.984;5.822;2023-04-25T04:19:04;6.00;99.90
24452;DHT22;13350;50.984;5.822;2023-04-25T04:21:31;6.00;99.90
24452;DHT22;13350;50.984;5.822;2023-04-25T04:23:59;6.00;99.90
24452;DHT22;13350;50.984;5.822;2023-04-25T04:26:26;5.90;99.90
24452;DHT22;13350;50.984;5.822;2023-04-25T04:28:53;6.00;99.90
24452;DHT22;13350;50.984;5.822;2023-04-25T04:31:22;6.00;99.90
24452;DHT22;13350;50.984;5.822;2023-04-25T04:33:49;6.00;99.90
24452;DHT22;13350;50.984;5.822;2023-04-25T04:36:17;5.90;99.90
24452;DHT22;13350;50.984;5.822;2023-04-25T04:38:47;5.90;99.90
24452;DHT22;13350;50.984;5.822;2023-04-25T04:41:15;5.90;99.90
24452;DHT22;13350;50.984;5.822;2023-04-25T04:43:42;5.90;99.90
24452;DHT22;13350;50.984;5.822;2023-04-25T04:46:09;5.90;99.90
24452;DHT22;13350;50.984;5.822;2023-04-25T04:48:39;5.90;99.90
24452;DHT22;13350;50.984;5.822;2023-04-25T04:51:06;6.00;99.90
24452;DHT22;13350;50.984;5.822;2023-04-25T04:53:34;5.90;99.90
24452;DHT22;13350;50.984;5.822;2023-04-25T04:56:01;5.90;99.90
24452;DHT22;13350;50.984;5.822;2023-04-25T04:58:28;5.90;99.90
24452;DHT22;13350;50.984;5.822;2023-04-25T05:00:56;5.90;99.90
24452;DHT22;13350;50.984;5.822;2023-04-25T05:03:23;5.90;99.90
24452;DHT22;13350;50.984;5.822;2023-04-25T05:05:52;6.00;99.90
24452;DHT22;13350;50.984;5.822;2023-04-25T05:08:19;6.00;99.90
24452;DHT22;13350;50.984;5.822;2023-04-25T05:10:46;6.00;99.90
24452;DHT22;13350;50.984;5.822;2023-04-25T05:13:13;6.10;99.90
24452;DHT22;13350;50.984;5.822;2023-04-25T05:15:41;6.10;99.90
24452;DHT22;13350;50.984;5.822;2023-04-25T05:18:08;6.10;99.90
24452;DHT22;13350;50.984;5.822;2023-04-25T05:20:35;6.20;99.90
24452;DHT22;13350;50.984;5.822;2023-04-25T05:23:04;6.20;99.90
24452;DHT22;13350;50.984;5.822;2023-04-25T05:25:31;6.30;99.90
24452;DHT22;13350;50.984;5.822;2023-04-25T05:27:58;6.40;99.90
24452;DHT22;13350;50.984;5.822;2023-04-25T05:30:25;6.50;99.90
24452;DHT22;13350;50.984;5.822;2023-04-25T05:32:53;6.60;99.90
24452;DHT22;13350;50.984;5.822;2023-04-25T05:35:20;6.70;99.90
24452;DHT22;13350;50.984;5.822;2023-04-25T05:37:47;6.80;99.90
24452;DHT22;13350;50.984;5.822;2023-04-25T05:40:15;6.90;99.90
24452;DHT22;13350;50.984;5.822;2023-04-25T05:42:43;7.00;99.90
24452;DHT22;13350;50.984;5.822;2023-04-25T05:45:10;7.00;99.90
24452;DHT22;13350;50.984;5.822;2023-04-25T05:47:37;7.10;99.90
24452;DHT22;13350;50.984;5.822;2023-04-25T05:50:06;7.10;99.90
24452;DHT22;13350;50.984;5.822;2023-04-25T05:52:34;7.10;99.90
24452;DHT22;13350;50.984;5.822;2023-04-25T05:55:01;7.10;99.90
24452;DHT22;13350;50.984;5.822;2023-04-25T05:57:30;7.20;99.90
24452;DHT22;13350;50.984;5.822;2023-04-25T05:59:57;7.20;99.90
24452;DHT22;13350;50.984;5.822;2023-04-25T06:02:24;7.30;99.90
24452;DHT22;13350;50.984;5.822;2023-04-25T06:04:52;7.50;99.90
24452;DHT22;13350;50.984;5.822;2023-04-25T06:07:20;7.60;99.90
24452;DHT22;13350;50.984;5.822;2023-04-25T06:09:47;7.80;99.90
24452;DHT22;13350;50.984;5.822;2023-04-25T06:12:14;8.00;99.90
24452;DHT22;13350;50.984;5.822;2023-04-25T06:14:42;8.10;99.90
24452;DHT22;13350;50.984;5.822;2023-04-25T06:17:10;8.00;99.90
24452;DHT22;13350;50.984;5.822;2023-04-25T06:19:37;7.90;99.90
24452;DHT22;13350;50.984;5.822;2023-04-25T06:22:04;8.00;99.90
24452;DHT22;13350;50.984;5.822;2023-04-25T06:24:33;8.10;99.90
24452;DHT22;13350;50.984;5.822;2023-04-25T06:27:00;8.40;99.90
24452;DHT22;13350;50.984;5.822;2023-04-25T06:29:28;8.80;99.90
24452;DHT22;13350;50.984;5.822;2023-04-25T06:31:56;9.00;99.90
24452;DHT22;13350;50.984;5.822;2023-04-25T06:34:24;8.80;99.90
24452;DHT22;13350;50.984;5.822;2023-04-25T06:36:51;8.90;99.90
24452;DHT22;13350;50.984;5.822;2023-04-25T06:39:18;8.60;99.90
24452;DHT22;13350;50.984;5.822;2023-04-25T06:41:48;8.60;99.90
24452;DHT22;13350;50.984;5.822;2023-04-25T06:44:16;8.70;99.90
24452;DHT22;13350;50.984;5.822;2023-04-25T06:46:43;8.70;99.90
24452;DHT22;13350;50.984;5.822;2023-04-25T06:49:12;8.70;99.90
24452;DHT22;13350;50.984;5.822;2023-04-25T06:51:40;8.60;99.90
24452;DHT22;13350;50.984;5.822;2023-04-25T06:54:07;8.40;99.90
24452;DHT22;13350;50.984;5.822;2023-04-25T06:56:34;8.40;99.90
24452;DHT22;13350;50.984;5.822;2023-04-25T06:59:01;8.30;99.90
24452;DHT22;13350;50.984;5.822;2023-04-25T07:01:29;8.40;99.90
24452;DHT22;13350;50.984;5.822;2023-04-25T07:03:56;8.40;99.90
24452;DHT22;13350;50.984;5.822;2023-04-25T07:06:24;8.30;99.90
24452;DHT22;13350;50.984;5.822;2023-04-25T07:08:53;8.40;99.90
24452;DHT22;13350;50.984;5.822;2023-04-25T07:11:21;8.50;99.90
24452;DHT22;13350;50.984;5.822;2023-04-25T07:13:48;8.70;99.90
24452;DHT22;13350;50.984;5.822;2023-04-25T07:16:16;8.70;99.90
24452;DHT22;13350;50.984;5.822;2023-04-25T07:18:43;8.70;99.90
24452;DHT22;13350;50.984;5.822;2023-04-25T07:21:11;8.80;99.90
24452;DHT22;13350;50.984;5.822;2023-04-25T07:23:39;9.00;99.90
24452;DHT22;13350;50.984;5.822;2023-04-25T07:26:06;9.10;99.90
24452;DHT22;13350;50.984;5.822;2023-04-25T07:28:34;9.10;99.90
24452;DHT22;13350;50.984;5.822;2023-04-25T07:31:01;9.10;99.90
24452;DHT22;13350;50.984;5.822;2023-04-25T07:33:29;8.80;99.90
24452;DHT22;13350;50.984;5.822;2023-04-25T07:35:56;8.90;99.90
24452;DHT22;13350;50.984;5.822;2023-04-25T07:38:24;9.10;99.90
24452;DHT22;13350;50.984;5.822;2023-04-25T07:40:52;8.90;99.90
24452;DHT22;13350;50.984;5.822;2023-04-25T07:43:19;8.70;99.90
24452;DHT22;13350;50.984;5.822;2023-04-25T07:45:47;8.80;99.90
24452;DHT22;13350;50.984;5.822;2023-04-25T07:48:17;8.90;99.90
24452;DHT22;13350;50.984;5.822;2023-04-25T07:50:45;8.90;99.90
24452;DHT22;13350;50.984;5.822;2023-04-25T07:53:12;8.80;99.90
24452;DHT22;13350;50.984;5.822;2023-04-25T07:55:39;9.10;99.90
24452;DHT22;13350;50.984;5.822;2023-04-25T07:58:08;9.40;99.90
24452;DHT22;13350;50.984;5.822;2023-04-25T08:00:36;9.50;99.90
24452;DHT22;13350;50.984;5.822;2023-04-25T08:03:03;9.60;99.90
24452;DHT22;13350;50.984;5.822;2023-04-25T08:05:31;9.80;99.90
24452;DHT22;13350;50.984;5.822;2023-04-25T08:07:59;9.90;99.90
24452;DHT22;13350;50.984;5.822;2023-04-25T08:10:26;9.80;99.90
24452;DHT22;13350;50.984;5.822;2023-04-25T08:12:54;9.90;99.90
24452;DHT22;13350;50.984;5.822;2023-04-25T08:15:22;10.00;99.90
24452;DHT22;13350;50.984;5.822;2023-04-25T08:17:49;10.10;99.90
24452;DHT22;13350;50.984;5.822;2023-04-25T08:20:17;10.00;99.90
24452;DHT22;13350;50.984;5.822;2023-04-25T08:22:44;9.90;99.90
24452;DHT22;13350;50.984;5.822;2023-04-25T08:25:11;9.70;99.90
24452;DHT22;13350;50.984;5.822;2023-04-25T08:27:38;10.10;99.90
24452;DHT22;13350;50.984;5.822;2023-04-25T08:30:07;10.30;99.90
24452;DHT22;13350;50.984;5.822;2023-04-25T08:32:36;10.20;99.90
24452;DHT22;13350;50.984;5.822;2023-04-25T08:35:05;10.10;99.90
24452;DHT22;13350;50.984;5.822;2023-04-25T08:37:32;10.00;99.90
24452;DHT22;13350;50.984;5.822;2023-04-25T08:39:59;10.50;99.90
24452;DHT22;13350;50.984;5.822;2023-04-25T08:42:27;10.70;99.90
24452;DHT22;13350;50.984;5.822;2023-04-25T08:44:55;10.20;99.90
24452;DHT22;13350;50.984;5.822;2023-04-25T08:47:23;9.70;99.90
24452;DHT22;13350;50.984;5.822;2023-04-25T08:49:53;9.40;99.90
24452;DHT22;13350;50.984;5.822;2023-04-25T08:52:22;9.40;99.90
24452;DHT22;13350;50.984;5.822;2023-04-25T08:54:51;9.70;99.90
24452;DHT22;13350;50.984;5.822;2023-04-25T08:57:20;9.70;99.90
24452;DHT22;13350;50.984;5.822;2023-04-25T08:59:49;9.70;99.90
24452;DHT22;13350;50.984;5.822;2023-04-25T09:02:17;9.90;99.90
24452;DHT22;13350;50.984;5.822;2023-04-25T09:04:46;9.90;99.90
24452;DHT22;13350;50.984;5.822;2023-04-25T09:07:15;10.10;99.90
24452;DHT22;13350;50.984;5.822;2023-04-25T09:09:44;10.40;99.90
24452;DHT22;13350;50.984;5.822;2023-04-25T09:12:12;10.60;99.90
24452;DHT22;13350;50.984;5.822;2023-04-25T09:14:39;10.50;99.90
24452;DHT22;13350;50.984;5.822;2023-04-25T09:17:08;10.50;99.90
24452;DHT22;13350;50.984;5.822;2023-04-25T09:19:36;10.70;99.90
24452;DHT22;13350;50.984;5.822;2023-04-25T09:22:06;10.70;99.90
24452;DHT22;13350;50.984;5.822;2023-04-25T09:24:36;10.70;99.90
24452;DHT22;13350;50.984;5.822;2023-04-25T09:27:04;10.90;99.90
24452;DHT22;13350;50.984;5.822;2023-04-25T09:29:32;11.00;99.90
24452;DHT22;13350;50.984;5.822;2023-04-25T09:32:15;10.40;99.90
24452;DHT22;13350;50.984;5.822;2023-04-25T09:34:44;10.10;99.90
24452;DHT22;13350;50.984;5.822;2023-04-25T09:37:17;9.80;99.90
24452;DHT22;13350;50.984;5.822;2023-04-25T09:39:48;9.70;99.90
24452;DHT22;13350;50.984;5.822;2023-04-25T09:42:16;9.60;99.90
24452;DHT22;13350;50.984;5.822;2023-04-25T09:44:44;9.80;99.90
24452;DHT22;13350;50.984;5.822;2023-04-25T09:47:13;9.80;99.90
24452;DHT22;13350;50.984;5.822;2023-04-25T09:49:42;9.90;99.90
24452;DHT22;13350;50.984;5.822;2023-04-25T09:52:13;9.80;99.90
24452;DHT22;13350;50.984;5.822;2023-04-25T09:54:40;9.80;99.90
24452;DHT22;13350;50.984;5.822;2023-04-25T09:57:11;9.90;99.90
24452;DHT22;13350;50.984;5.822;2023-04-25T09:59:42;10.00;99.90
24452;DHT22;13350;50.984;5.822;2023-04-25T10:02:11;10.10;99.90
24452;DHT22;13350;50.984;5.822;2023-04-25T10:04:39;10.40;99.90
24452;DHT22;13350;50.984;5.822;2023-04-25T10:07:07;10.60;99.90
24452;DHT22;13350;50.984;5.822;2023-04-25T10:09:38;10.80;99.90
24452;DHT22;13350;50.984;5.822;2023-04-25T10:12:07;12.60;99.90
24452;DHT22;13350;50.984;5.822;2023-04-25T10:14:36;15.20;99.90
24452;DHT22;13350;50.984;5.822;2023-04-25T10:17:03;14.10;99.90
24452;DHT22;13350;50.984;5.822;2023-04-25T10:19:30;12.40;99.90
24452;DHT22;13350;50.984;5.822;2023-04-25T10:22:05;11.40;99.90
24452;DHT22;13350;50.984;5.822;2023-04-25T10:24:35;10.50;99.90
24452;DHT22;13350;50.984;5.822;2023-04-25T10:27:03;10.00;99.90
24452;DHT22;13350;50.984;5.822;2023-04-25T10:29:31;9.60;99.90
24452;DHT22;13350;50.984;5.822;2023-04-25T10:32:00;9.20;99.90
24452;DHT22;13350;50.984;5.822;2023-04-25T10:34:38;9.00;99.90
24452;DHT22;13350;50.984;5.822;2023-04-25T10:37:09;8.80;99.90
24452;DHT22;13350;50.984;5.822;2023-04-25T10:39:38;8.80;99.90
24452;DHT22;13350;50.984;5.822;2023-04-25T10:42:05;8.80;99.90
24452;DHT22;13350;50.984;5.822;2023-04-25T10:44:33;8.80;99.90
24452;DHT22;13350;50.984;5.822;2023-04-25T10:47:02;8.80;99.90
24452;DHT22;13350;50.984;5.822;2023-04-25T10:49:34;8.90;99.90
24452;DHT22;13350;50.984;5.822;2023-04-25T10:52:18;9.20;99.90
24452;DHT22;13350;50.984;5.822;2023-04-25T10:54:51;9.60;99.90
24452;DHT22;13350;50.984;5.822;2023-04-25T10:57:35;9.90;99.90
24452;DHT22;13350;50.984;5.822;2023-04-25T11:00:08;10.20;99.90
24452;DHT22;13350;50.984;5.822;2023-04-25T11:02:45;10.40;99.90
24452;DHT22;13350;50.984;5.822;2023-04-25T11:05:31;10.30;99.90
24452;DHT22;13350;50.984;5.822;2023-04-25T11:07:59;10.30;99.90
24452;DHT22;13350;50.984;5.822;2023-04-25T11:10:27;10.30;99.90
24452;DHT22;13350;50.984;5.822;2023-04-25T11:12:55;10.50;99.90
24452;DHT22;13350;50.984;5.822;2023-04-25T11:15:23;10.80;99.90
24452;DHT22;13350;50.984;5.822;2023-04-25T11:17:52;10.80;99.90
24452;DHT22;13350;50.984;5.822;2023-04-25T11:20:20;11.20;99.90
24452;DHT22;13350;50.984;5.822;2023-04-25T11:22:47;11.70;99.90
24452;DHT22;13350;50.984;5.822;2023-04-25T11:25:15;12.20;99.90
24452;DHT22;13350;50.984;5.822;2023-04-25T11:27:52;12.20;99.90
24452;DHT22;13350;50.984;5.822;2023-04-25T11:30:21;12.00;99.90
24452;DHT22;13350;50.984;5.822;2023-04-25T11:32:48;12.80;99.90
24452;DHT22;13350;50.984;5.822;2023-04-25T11:35:19;12.80;99.90
24452;DHT22;13350;50.984;5.822;2023-04-25T11:37:48;13.20;99.90
24452;DHT22;13350;50.984;5.822;2023-04-25T11:40:16;13.70;99.90
24452;DHT22;13350;50.984;5.822;2023-04-25T11:42:45;13.70;99.90
24452;DHT22;13350;50.984;5.822;2023-04-25T11:45:13;12.90;99.90
24452;DHT22;13350;50.984;5.822;2023-04-25T11:47:40;12.90;99.90
24452;DHT22;13350;50.984;5.822;2023-04-25T11:50:09;12.60;99.90
24452;DHT22;13350;50.984;5.822;2023-04-25T11:52:39;12.60;99.90
24452;DHT22;13350;50.984;5.822;2023-04-25T11:55:08;12.90;99.90
24452;DHT22;13350;50.984;5.822;2023-04-25T11:57:38;12.80;99.90
24452;DHT22;13350;50.984;5.822;2023-04-25T12:00:11;12.60;99.90
24452;DHT22;13350;50.984;5.822;2023-04-25T12:02:41;12.40;99.90
24452;DHT22;13350;50.984;5.822;2023-04-25T12:05:09;13.60;99.90
24452;DHT22;13350;50.984;5.822;2023-04-25T12:07:38;15.20;99.90
24452;DHT22;13350;50.984;5.822;2023-04-25T12:10:10;14.00;99.90
24452;DHT22;13350;50.984;5.822;2023-04-25T12:12:41;13.00;99.90
24452;DHT22;13350;50.984;5.822;2023-04-25T12:15:09;12.70;99.90
24452;DHT22;13350;50.984;5.822;2023-04-25T12:17:38;13.40;99.90
24452;DHT22;13350;50.984;5.822;2023-04-25T12:20:11;13.10;99.90
24452;DHT22;13350;50.984;5.822;2023-04-25T12:22:41;13.50;99.90
24452;DHT22;13350;50.984;5.822;2023-04-25T12:25:11;13.60;99.90
24452;DHT22;13350;50.984;5.822;2023-04-25T12:27:39;14.30;99.90
24452;DHT22;13350;50.984;5.822;2023-04-25T12:30:08;14.10;99.90
24452;DHT22;13350;50.984;5.822;2023-04-25T12:32:37;14.70;99.90
24452;DHT22;13350;50.984;5.822;2023-04-25T12:35:05;16.50;99.90
24452;DHT22;13350;50.984;5.822;2023-04-25T12:37:33;17.50;99.90
24452;DHT22;13350;50.984;5.822;2023-04-25T12:40:02;16.40;97.80
24452;DHT22;13350;50.984;5.822;2023-04-25T12:42:32;15.00;99.90
24452;DHT22;13350;50.984;5.822;2023-04-25T12:44:59;14.50;99.90
24452;DHT22;13350;50.984;5.822;2023-04-25T12:47:26;13.40;99.90
24452;DHT22;13350;50.984;5.822;2023-04-25T12:49:53;12.20;99.90
24452;DHT22;13350;50.984;5.822;2023-04-25T12:52:21;11.50;99.90
24452;DHT22;13350;50.984;5.822;2023-04-25T12:54:48;10.80;99.90
24452;DHT22;13350;50.984;5.822;2023-04-25T12:57:16;10.10;99.90
24452;DHT22;13350;50.984;5.822;2023-04-25T12:59:44;9.70;99.90
24452;DHT22;13350;50.984;5.822;2023-04-25T13:02:11;9.50;99.90
24452;DHT22;13350;50.984;5.822;2023-04-25T13:04:38;9.50;99.90
24452;DHT22;13350;50.984;5.822;2023-04-25T13:07:05;9.70;99.90
24452;DHT22;13350;50.984;5.822;2023-04-25T13:09:32;10.00;99.90
24452;DHT22;13350;50.984;5.822;2023-04-25T13:11:59;10.40;99.90
24452;DHT22;13350;50.984;5.822;2023-04-25T13:14:28;10.80;99.90
24452;DHT22;13350;50.984;5.822;2023-04-25T13:16:56;11.00;99.90
24452;DHT22;13350;50.984;5.822;2023-04-25T13:19:23;11.10;99.90
24452;DHT22;13350;50.984;5.822;2023-04-25T13:21:51;11.00;99.90
24452;DHT22;13350;50.984;5.822;2023-04-25T13:24:18;11.20;99.90
24452;DHT22;13350;50.984;5.822;2023-04-25T13:26:45;11.30;99.90
24452;DHT22;13350;50.984;5.822;2023-04-25T13:29:13;11.60;99.90
24452;DHT22;13350;50.984;5.822;2023-04-25T13:31:41;12.10;99.90
24452;DHT22;13350;50.984;5.822;2023-04-25T13:34:08;12.80;99.90
24452;DHT22;13350;50.984;5.822;2023-04-25T13:36:36;13.50;99.90
24452;DHT22;13350;50.984;5.822;2023-04-25T13:39:03;13.70;99.90
24452;DHT22;13350;50.984;5.822;2023-04-25T13:41:31;13.60;99.90
24452;DHT22;13350;50.984;5.822;2023-04-25T13:43:58;13.60;99.90
24452;DHT22;13350;50.984;5.822;2023-04-25T13:46:26;12.90;99.90
24452;DHT22;13350;50.984;5.822;2023-04-25T13:48:55;12.30;99.90
24452;DHT22;13350;50.984;5.822;2023-04-25T13:51:22;11.50;99.90
24452;DHT22;13350;50.984;5.822;2023-04-25T13:53:49;10.80;99.90
24452;DHT22;13350;50.984;5.822;2023-04-25T13:56:17;10.60;99.90
24452;DHT22;13350;50.984;5.822;2023-04-25T13:58:45;10.60;99.90
24452;DHT22;13350;50.984;5.822;2023-04-25T14:01:12;10.60;99.90
24452;DHT22;13350;50.984;5.822;2023-04-25T14:03:39;10.40;99.90
24452;DHT22;13350;50.984;5.822;2023-04-25T14:06:08;10.40;99.90
24452;DHT22;13350;50.984;5.822;2023-04-25T14:08:36;10.20;99.90
24452;DHT22;13350;50.984;5.822;2023-04-25T14:11:04;10.00;99.90
24452;DHT22;13350;50.984;5.822;2023-04-25T14:13:31;10.00;99.90
24452;DHT22;13350;50.984;5.822;2023-04-25T14:15:58;10.00;99.90
24452;DHT22;13350;50.984;5.822;2023-04-25T14:18:25;10.20;99.90
24452;DHT22;13350;50.984;5.822;2023-04-25T14:20:52;10.40;99.90
24452;DHT22;13350;50.984;5.822;2023-04-25T14:23:21;10.70;99.90
24452;DHT22;13350;50.984;5.822;2023-04-25T14:25:48;11.00;99.90
24452;DHT22;13350;50.984;5.822;2023-04-25T14:28:15;11.70;99.90
24452;DHT22;13350;50.984;5.822;2023-04-25T14:30:43;13.70;99.90
24452;DHT22;13350;50.984;5.822;2023-04-25T14:33:10;14.60;99.90
24452;DHT22;13350;50.984;5.822;2023-04-25T14:35:37;14.10;99.90
24452;DHT22;13350;50.984;5.822;2023-04-25T14:38:04;13.80;99.90
24452;DHT22;13350;50.984;5.822;2023-04-25T14:40:34;12.90;99.90
24452;DHT22;13350;50.984;5.822;2023-04-25T14:43:03;11.80;99.90
24452;DHT22;13350;50.984;5.822;2023-04-25T14:45:30;12.00;99.90
24452;DHT22;13350;50.984;5.822;2023-04-25T14:47:57;11.80;99.70
24452;DHT22;13350;50.984;5.822;2023-04-25T14:50:24;11.90;99.40
24452;DHT22;13350;50.984;5.822;2023-04-25T14:52:52;11.90;98.30
24452;DHT22;13350;50.984;5.822;2023-04-25T14:55:19;12.00;99.10
24452;DHT22;13350;50.984;5.822;2023-04-25T14:57:48;12.30;99.90
24452;DHT22;13350;50.984;5.822;2023-04-25T15:00:16;13.20;99.90
24452;DHT22;13350;50.984;5.822;2023-04-25T15:02:45;14.40;99.90
24452;DHT22;13350;50.984;5.822;2023-04-25T15:05:12;14.50;99.90
24452;DHT22;13350;50.984;5.822;2023-04-25T15:07:41;12.40;99.90
24452;DHT22;13350;50.984;5.822;2023-04-25T15:10:09;11.80;99.90
24452;DHT22;13350;50.984;5.822;2023-04-25T15:12:39;12.60;99.90
24452;DHT22;13350;50.984;5.822;2023-04-25T15:15:09;12.10;99.90
24452;DHT22;13350;50.984;5.822;2023-04-25T15:17:37;11.70;99.90
24452;DHT22;13350;50.984;5.822;2023-04-25T15:20:06;12.20;99.90
24452;DHT22;13350;50.984;5.822;2023-04-25T15:22:36;12.50;99.90
24452;DHT22;13350;50.984;5.822;2023-04-25T15:25:03;12.90;99.90
24452;DHT22;13350;50.984;5.822;2023-04-25T15:27:32;12.50;99.90
24452;DHT22;13350;50.984;5.822;2023-04-25T15:30:00;12.90;99.90
24452;DHT22;13350;50.984;5.822;2023-04-25T15:32:28;13.30;99.90
24452;DHT22;13350;50.984;5.822;2023-04-25T15:34:56;13.00;98.80
24452;DHT22;13350;50.984;5.822;2023-04-25T15:37:23;12.10;99.90
24452;DHT22;13350;50.984;5.822;2023-04-25T15:40:01;12.30;99.90
24452;DHT22;13350;50.984;5.822;2023-04-25T15:42:29;13.30;99.90
24452;DHT22;13350;50.984;5.822;2023-04-25T15:44:56;13.40;98.60